Ikan Parang — 9V9099 — position and weather

sailwx.info

Track history (hours):
 
Tides and Currents Weather Stations Pressure Air Temp Water Temp Dewpoint Dewpoint Depression Visibility Wind Speed Wind Dir Waves Ship Positions

Ikan Parang

Last reported at 2016-Dec-14 04:33 UTC. Time now 2017-Jan-17 19:24 UTC.
Position N 31°02' E 122°16'.
Warning: this ship's position is 34 days out of date.

Length 183 m; draft 6.7 m.

Type: Cargo ship. MMSI: 566238000.

Date/timePositionNaut miles runAvg speedWind from/ knotsBaromVisibWave heightAir tempDewpointWater temp
2016-Dec-14 04:33N 31°02' E 122°16'1111.0
2016-Dec-14 03:34N 31°04' E 122°03'7 7.4
2016-Dec-14 02:34N 31°07' E 121°56'10 9.7
2016-Dec-14 01:33N 31°14' E 121°47'1111.0
2016-Dec-14 00:34N 31°22' E 121°38'10 9.7
2016-Dec-13 23:34N 31°27' E 121°28'1111.0
2016-Dec-13 22:34N 31°34' E 121°19'1 1.3
2016-Dec-13 21:32N 31°35' E 121°20'0 0.0
2016-Dec-13 20:32N 31°35' E 121°20'0 0.1
2016-Dec-13 19:32N 31°35' E 121°20'0 0.0
2016-Dec-13 18:32N 31°35' E 121°20'0 0.2
2016-Dec-13 17:32N 31°35' E 121°20'0 0.0
2016-Dec-13 16:32N 31°35' E 121°20'0 0.0
2016-Dec-13 15:32N 31°35' E 121°20'0 0.1
2016-Dec-13 14:32N 31°35' E 121°20'1 1.0
2016-Dec-13 13:32N 31°35' E 121°18'1313.5
2016-Dec-13 12:33N 31°44' E 121°07'1412.4
2016-Dec-13 11:25N 31°52' E 120°53'2211.7
2016-Dec-13 09:32N 32°02' E 120°30'1212.5
2016-Dec-13 08:33N 31°57' E 120°17'10 9.6
2016-Dec-13 07:33N 31°57' E 120°06'1211.4
2016-Dec-13 06:32N 32°05' E 119°55'1 0.0
2016-Dec-11 05:18N 32°05' E 119°55'1 0.8
2016-Dec-11 03:22N 32°04' E 119°56'0 0.0
2016-Dec-10 23:33N 32°04' E 119°56'0 0.0
2016-Dec-10 18:09N 32°04' E 119°56'0 0.1
2016-Dec-10 15:15N 32°04' E 119°56'0 0.0
2016-Dec-10 14:27N 32°04' E 119°56'0 0.0
2016-Dec-10 13:09N 32°04' E 119°56'0 0.0
2016-Dec-10 12:16N 32°04' E 119°56'0 0.0
2016-Dec-10 11:21N 32°04' E 119°56'0 0.0
2016-Dec-10 08:27N 32°04' E 119°56'0 0.2
2016-Dec-10 07:09N 32°04' E 119°56'0 0.2
2016-Dec-10 06:27N 32°04' E 119°56'3 3.4
2016-Dec-10 05:32N 32°01' E 119°58'9 9.4
2016-Dec-10 04:33N 31°57' E 120°07'1010.0
2016-Dec-10 03:33N 31°58' E 120°19'37 9.3
2016-Dec-09 23:32N 31°47' E 121°01'1111.1
2016-Dec-09 22:34N 31°41' E 121°11'8 7.7
2016-Dec-09 21:33N 31°36' E 121°19'0 0.1
2016-Dec-09 20:33N 31°36' E 121°19'0 0.1
2016-Dec-09 19:33N 31°36' E 121°19'0 0.0
2016-Dec-09 18:33N 31°36' E 121°19'0 0.0
2016-Dec-09 17:33N 31°36' E 121°19'0 0.0
2016-Dec-09 16:33N 31°36' E 121°19'0 0.2
2016-Dec-09 15:33N 31°36' E 121°18'3 3.1
2016-Dec-09 14:33N 31°33' E 121°20'10 9.7
2016-Dec-09 13:33N 31°27' E 121°29'10 9.6
2016-Dec-09 12:33N 31°22' E 121°38'  
Track history (hours):
 
Tides and Currents Weather Stations Pressure Air Temp Water Temp Dewpoint Dewpoint Depression Visibility Wind Speed Wind Dir Waves Ship Positions

Ikan Parang

Last reported at 2016-Dec-14 04:33 UTC. Time now 2017-Jan-17 19:24 UTC.
Position N 31°02' E 122°16'.
Warning: this ship's position is 34 days out of date.

Length 183 m; draft 6.7 m.

Type: Cargo ship. MMSI: 566238000.

Date/timePositionNaut miles runAvg speedWind from/ knotsBaromVisibWave heightAir tempDewpointWater temp
2016-Dec-14 04:33N 31°02' E 122°16'1111.0
2016-Dec-14 03:34N 31°04' E 122°03'7 7.4
2016-Dec-14 02:34N 31°07' E 121°56'10 9.7
2016-Dec-14 01:33N 31°14' E 121°47'1111.0
2016-Dec-14 00:34N 31°22' E 121°38'10 9.7
2016-Dec-13 23:34N 31°27' E 121°28'1111.0
2016-Dec-13 22:34N 31°34' E 121°19'1 1.3
2016-Dec-13 21:32N 31°35' E 121°20'0 0.0
2016-Dec-13 20:32N 31°35' E 121°20'0 0.1
2016-Dec-13 19:32N 31°35' E 121°20'0 0.0
2016-Dec-13 18:32N 31°35' E 121°20'0 0.2
2016-Dec-13 17:32N 31°35' E 121°20'0 0.0
2016-Dec-13 16:32N 31°35' E 121°20'0 0.0
2016-Dec-13 15:32N 31°35' E 121°20'0 0.1
2016-Dec-13 14:32N 31°35' E 121°20'1 1.0
2016-Dec-13 13:32N 31°35' E 121°18'1313.5
2016-Dec-13 12:33N 31°44' E 121°07'1412.4
2016-Dec-13 11:25N 31°52' E 120°53'2211.7
2016-Dec-13 09:32N 32°02' E 120°30'1212.5
2016-Dec-13 08:33N 31°57' E 120°17'10 9.6
2016-Dec-13 07:33N 31°57' E 120°06'1211.4
2016-Dec-13 06:32N 32°05' E 119°55'1 0.0
2016-Dec-11 05:18N 32°05' E 119°55'1 0.8
2016-Dec-11 03:22N 32°04' E 119°56'0 0.0
2016-Dec-10 23:33N 32°04' E 119°56'0 0.0
2016-Dec-10 18:09N 32°04' E 119°56'0 0.1
2016-Dec-10 15:15N 32°04' E 119°56'0 0.0
2016-Dec-10 14:27N 32°04' E 119°56'0 0.0
2016-Dec-10 13:09N 32°04' E 119°56'0 0.0
2016-Dec-10 12:16N 32°04' E 119°56'0 0.0
2016-Dec-10 11:21N 32°04' E 119°56'0 0.0
2016-Dec-10 08:27N 32°04' E 119°56'0 0.2
2016-Dec-10 07:09N 32°04' E 119°56'0 0.2
2016-Dec-10 06:27N 32°04' E 119°56'3 3.4
2016-Dec-10 05:32N 32°01' E 119°58'9 9.4
2016-Dec-10 04:33N 31°57' E 120°07'1010.0
2016-Dec-10 03:33N 31°58' E 120°19'37 9.3
2016-Dec-09 23:32N 31°47' E 121°01'1111.1
2016-Dec-09 22:34N 31°41' E 121°11'8 7.7
2016-Dec-09 21:33N 31°36' E 121°19'0 0.1
2016-Dec-09 20:33N 31°36' E 121°19'0 0.1
2016-Dec-09 19:33N 31°36' E 121°19'0 0.0
2016-Dec-09 18:33N 31°36' E 121°19'0 0.0
2016-Dec-09 17:33N 31°36' E 121°19'0 0.0
2016-Dec-09 16:33N 31°36' E 121°19'0 0.2
2016-Dec-09 15:33N 31°36' E 121°18'3 3.1
2016-Dec-09 14:33N 31°33' E 121°20'10 9.7
2016-Dec-09 13:33N 31°27' E 121°29'10 9.6
2016-Dec-09 12:33N 31°22' E 121°38'  

Dump ship's entire track history